sensor_id;sensor_type;location;lat;lon;timestamp;P1;durP1;ratioP1;P2;durP2;ratioP2
63046;SDS011;62025;39.238;9.126;2023-11-21T00:01:41;6.85;;;4.60;;
63046;SDS011;62025;39.238;9.126;2023-11-21T00:04:08;8.38;;;4.38;;
63046;SDS011;62025;39.238;9.126;2023-11-21T00:06:34;7.45;;;4.57;;
63046;SDS011;62025;39.238;9.126;2023-11-21T00:09:00;6.35;;;4.05;;
63046;SDS011;62025;39.238;9.126;2023-11-21T00:11:26;6.97;;;4.05;;
63046;SDS011;62025;39.238;9.126;2023-11-21T00:13:52;7.28;;;4.20;;
63046;SDS011;62025;39.238;9.126;2023-11-21T00:16:17;5.90;;;4.15;;
63046;SDS011;62025;39.238;9.126;2023-11-21T00:18:43;7.63;;;4.35;;
63046;SDS011;62025;39.238;9.126;2023-11-21T00:21:11;6.68;;;3.97;;
63046;SDS011;62025;39.238;9.126;2023-11-21T00:23:37;7.28;;;3.72;;
63046;SDS011;62025;39.238;9.126;2023-11-21T00:26:03;6.38;;;3.97;;
63046;SDS011;62025;39.238;9.126;2023-11-21T00:28:29;4.78;;;3.80;;
63046;SDS011;62025;39.238;9.126;2023-11-21T00:30:55;5.72;;;3.13;;
63046;SDS011;62025;39.238;9.126;2023-11-21T00:33:21;5.70;;;3.33;;
63046;SDS011;62025;39.238;9.126;2023-11-21T00:35:47;5.13;;;3.05;;
63046;SDS011;62025;39.238;9.126;2023-11-21T00:38:13;5.15;;;2.80;;
63046;SDS011;62025;39.238;9.126;2023-11-21T00:40:39;4.13;;;2.60;;
63046;SDS011;62025;39.238;9.126;2023-11-21T00:43:04;4.95;;;2.92;;
63046;SDS011;62025;39.238;9.126;2023-11-21T00:45:30;3.55;;;2.63;;
63046;SDS011;62025;39.238;9.126;2023-11-21T00:47:56;3.95;;;2.65;;
63046;SDS011;62025;39.238;9.126;2023-11-21T00:50:23;3.47;;;2.85;;
63046;SDS011;62025;39.238;9.126;2023-11-21T00:52:49;4.63;;;2.80;;
63046;SDS011;62025;39.238;9.126;2023-11-21T00:55:17;4.78;;;2.97;;
63046;SDS011;62025;39.238;9.126;2023-11-21T00:57:43;4.15;;;2.40;;
63046;SDS011;62025;39.238;9.126;2023-11-21T01:00:09;3.88;;;2.72;;
63046;SDS011;62025;39.238;9.126;2023-11-21T01:02:45;4.35;;;2.83;;
63046;SDS011;62025;39.238;9.126;2023-11-21T01:05:13;3.88;;;2.40;;
63046;SDS011;62025;39.238;9.126;2023-11-21T01:07:39;5.35;;;2.40;;
63046;SDS011;62025;39.238;9.126;2023-11-21T01:10:05;4.32;;;2.50;;
63046;SDS011;62025;39.238;9.126;2023-11-21T01:12:36;4.22;;;2.25;;
63046;SDS011;62025;39.238;9.126;2023-11-21T01:15:04;3.92;;;2.47;;
63046;SDS011;62025;39.238;9.126;2023-11-21T01:17:33;4.82;;;2.45;;
63046;SDS011;62025;39.238;9.126;2023-11-21T01:20:00;2.83;;;2.10;;
63046;SDS011;62025;39.238;9.126;2023-11-21T01:22:28;3.45;;;1.90;;
63046;SDS011;62025;39.238;9.126;2023-11-21T01:24:54;7.75;;;2.47;;
63046;SDS011;62025;39.238;9.126;2023-11-21T01:27:19;4.68;;;2.00;;
63046;SDS011;62025;39.238;9.126;2023-11-21T01:29:45;4.28;;;2.00;;
63046;SDS011;62025;39.238;9.126;2023-11-21T01:32:11;5.47;;;2.03;;
63046;SDS011;62025;39.238;9.126;2023-11-21T01:34:37;2.97;;;1.80;;
63046;SDS011;62025;39.238;9.126;2023-11-21T01:37:04;2.78;;;2.00;;
63046;SDS011;62025;39.238;9.126;2023-11-21T01:39:31;5.70;;;1.90;;
63046;SDS011;62025;39.238;9.126;2023-11-21T01:41:57;3.30;;;2.03;;
63046;SDS011;62025;39.238;9.126;2023-11-21T01:44:26;4.95;;;1.80;;
63046;SDS011;62025;39.238;9.126;2023-11-21T01:46:52;3.58;;;2.00;;
63046;SDS011;62025;39.238;9.126;2023-11-21T01:49:19;2.88;;;1.85;;
63046;SDS011;62025;39.238;9.126;2023-11-21T01:51:46;2.50;;;1.60;;
63046;SDS011;62025;39.238;9.126;2023-11-21T01:54:17;3.47;;;1.90;;
63046;SDS011;62025;39.238;9.126;2023-11-21T01:56:46;4.32;;;1.85;;
63046;SDS011;62025;39.238;9.126;2023-11-21T01:59:13;1.95;;;1.70;;
63046;SDS011;62025;39.238;9.126;2023-11-21T02:01:45;3.85;;;2.10;;
63046;SDS011;62025;39.238;9.126;2023-11-21T02:04:12;3.47;;;1.95;;
63046;SDS011;62025;39.238;9.126;2023-11-21T02:06:38;2.83;;;1.70;;
63046;SDS011;62025;39.238;9.126;2023-11-21T02:09:04;3.53;;;2.10;;
63046;SDS011;62025;39.238;9.126;2023-11-21T02:11:30;3.20;;;1.90;;
63046;SDS011;62025;39.238;9.126;2023-11-21T02:13:59;3.88;;;1.75;;
63046;SDS011;62025;39.238;9.126;2023-11-21T02:16:26;2.83;;;1.70;;
63046;SDS011;62025;39.238;9.126;2023-11-21T02:18:52;2.30;;;1.80;;
63046;SDS011;62025;39.238;9.126;2023-11-21T02:21:19;3.70;;;1.88;;
63046;SDS011;62025;39.238;9.126;2023-11-21T02:23:45;2.97;;;1.92;;
63046;SDS011;62025;39.238;9.126;2023-11-21T02:26:12;2.67;;;2.20;;
63046;SDS011;62025;39.238;9.126;2023-11-21T02:28:39;2.92;;;2.20;;
63046;SDS011;62025;39.238;9.126;2023-11-21T02:31:05;4.18;;;2.40;;
63046;SDS011;62025;39.238;9.126;2023-11-21T02:33:33;4.95;;;2.45;;
63046;SDS011;62025;39.238;9.126;2023-11-21T02:35:59;2.25;;;1.92;;
63046;SDS011;62025;39.238;9.126;2023-11-21T02:38:26;4.15;;;2.53;;
63046;SDS011;62025;39.238;9.126;2023-11-21T02:40:52;2.55;;;2.00;;
63046;SDS011;62025;39.238;9.126;2023-11-21T02:43:18;5.38;;;2.38;;
63046;SDS011;62025;39.238;9.126;2023-11-21T02:45:44;3.97;;;2.00;;
63046;SDS011;62025;39.238;9.126;2023-11-21T02:48:11;5.05;;;2.13;;
63046;SDS011;62025;39.238;9.126;2023-11-21T02:50:37;3.38;;;2.28;;
63046;SDS011;62025;39.238;9.126;2023-11-21T02:53:03;3.38;;;2.40;;
63046;SDS011;62025;39.238;9.126;2023-11-21T02:55:31;2.92;;;2.60;;
63046;SDS011;62025;39.238;9.126;2023-11-21T03:00:26;5.53;;;2.40;;
63046;SDS011;62025;39.238;9.126;2023-11-21T03:02:54;4.85;;;2.65;;
63046;SDS011;62025;39.238;9.126;2023-11-21T03:05:21;5.68;;;2.60;;
63046;SDS011;62025;39.238;9.126;2023-11-21T03:07:47;2.97;;;2.28;;
63046;SDS011;62025;39.238;9.126;2023-11-21T03:10:13;2.83;;;2.05;;
63046;SDS011;62025;39.238;9.126;2023-11-21T03:12:39;3.50;;;2.20;;
63046;SDS011;62025;39.238;9.126;2023-11-21T03:15:05;4.93;;;2.58;;
63046;SDS011;62025;39.238;9.126;2023-11-21T03:17:32;3.60;;;2.53;;
63046;SDS011;62025;39.238;9.126;2023-11-21T03:20:02;3.88;;;2.22;;
63046;SDS011;62025;39.238;9.126;2023-11-21T03:22:29;3.33;;;2.60;;
63046;SDS011;62025;39.238;9.126;2023-11-21T03:24:55;2.67;;;2.30;;
63046;SDS011;62025;39.238;9.126;2023-11-21T03:27:20;3.13;;;2.30;;
63046;SDS011;62025;39.238;9.126;2023-11-21T03:29:47;5.28;;;2.28;;
63046;SDS011;62025;39.238;9.126;2023-11-21T03:32:16;4.20;;;2.90;;
63046;SDS011;62025;39.238;9.126;2023-11-21T03:34:54;3.63;;;2.47;;
63046;SDS011;62025;39.238;9.126;2023-11-21T03:37:22;3.15;;;2.13;;
63046;SDS011;62025;39.238;9.126;2023-11-21T03:39:48;4.82;;;2.50;;
63046;SDS011;62025;39.238;9.126;2023-11-21T03:42:14;4.20;;;2.40;;
63046;SDS011;62025;39.238;9.126;2023-11-21T03:44:40;4.43;;;2.22;;
63046;SDS011;62025;39.238;9.126;2023-11-21T03:47:06;4.63;;;2.20;;
63046;SDS011;62025;39.238;9.126;2023-11-21T03:49:32;3.08;;;2.17;;
63046;SDS011;62025;39.238;9.126;2023-11-21T03:51:58;3.03;;;1.80;;
63046;SDS011;62025;39.238;9.126;2023-11-21T03:54:24;3.60;;;2.28;;
63046;SDS011;62025;39.238;9.126;2023-11-21T03:56:50;5.60;;;2.30;;
63046;SDS011;62025;39.238;9.126;2023-11-21T03:59:17;3.05;;;2.40;;
63046;SDS011;62025;39.238;9.126;2023-11-21T04:01:43;4.00;;;2.30;;
63046;SDS011;62025;39.238;9.126;2023-11-21T04:04:09;2.45;;;1.95;;
63046;SDS011;62025;39.238;9.126;2023-11-21T04:06:34;3.15;;;1.92;;
63046;SDS011;62025;39.238;9.126;2023-11-21T04:09:01;4.90;;;2.28;;
63046;SDS011;62025;39.238;9.126;2023-11-21T04:11:29;3.20;;;2.15;;
63046;SDS011;62025;39.238;9.126;2023-11-21T04:13:55;3.75;;;2.42;;
63046;SDS011;62025;39.238;9.126;2023-11-21T04:16:21;3.38;;;2.33;;
63046;SDS011;62025;39.238;9.126;2023-11-21T04:18:47;3.28;;;2.20;;
63046;SDS011;62025;39.238;9.126;2023-11-21T04:21:13;3.47;;;2.15;;
63046;SDS011;62025;39.238;9.126;2023-11-21T04:23:39;3.53;;;2.28;;
63046;SDS011;62025;39.238;9.126;2023-11-21T04:26:05;5.00;;;2.15;;
63046;SDS011;62025;39.238;9.126;2023-11-21T04:28:31;5.35;;;2.35;;
63046;SDS011;62025;39.238;9.126;2023-11-21T04:30:57;4.63;;;2.38;;
63046;SDS011;62025;39.238;9.126;2023-11-21T04:33:23;5.63;;;2.25;;
63046;SDS011;62025;39.238;9.126;2023-11-21T04:35:50;2.60;;;2.10;;
63046;SDS011;62025;39.238;9.126;2023-11-21T04:38:16;3.40;;;2.00;;
63046;SDS011;62025;39.238;9.126;2023-11-21T04:40:44;4.22;;;2.40;;
63046;SDS011;62025;39.238;9.126;2023-11-21T04:43:09;4.43;;;2.00;;
63046;SDS011;62025;39.238;9.126;2023-11-21T04:45:35;4.15;;;2.20;;
63046;SDS011;62025;39.238;9.126;2023-11-21T04:48:01;3.90;;;2.20;;
63046;SDS011;62025;39.238;9.126;2023-11-21T04:50:27;4.70;;;2.25;;
63046;SDS011;62025;39.238;9.126;2023-11-21T04:52:53;5.00;;;2.47;;
63046;SDS011;62025;39.238;9.126;2023-11-21T04:55:19;3.35;;;2.25;;
63046;SDS011;62025;39.238;9.126;2023-11-21T04:57:45;3.63;;;2.28;;
63046;SDS011;62025;39.238;9.126;2023-11-21T05:00:12;3.80;;;2.25;;
63046;SDS011;62025;39.238;9.126;2023-11-21T05:02:39;4.53;;;1.92;;
63046;SDS011;62025;39.238;9.126;2023-11-21T05:05:06;6.00;;;2.00;;
63046;SDS011;62025;39.238;9.126;2023-11-21T05:07:33;5.63;;;2.10;;
63046;SDS011;62025;39.238;9.126;2023-11-21T05:10:00;4.30;;;2.10;;
63046;SDS011;62025;39.238;9.126;2023-11-21T05:12:30;2.67;;;2.33;;
63046;SDS011;62025;39.238;9.126;2023-11-21T05:15:05;5.30;;;2.25;;
63046;SDS011;62025;39.238;9.126;2023-11-21T05:17:35;3.08;;;1.95;;
63046;SDS011;62025;39.238;9.126;2023-11-21T05:20:03;2.92;;;2.25;;
63046;SDS011;62025;39.238;9.126;2023-11-21T05:22:33;5.03;;;2.35;;
63046;SDS011;62025;39.238;9.126;2023-11-21T05:25:00;4.03;;;2.10;;
63046;SDS011;62025;39.238;9.126;2023-11-21T05:27:26;5.03;;;2.10;;
63046;SDS011;62025;39.238;9.126;2023-11-21T05:29:52;5.53;;;3.03;;
63046;SDS011;62025;39.238;9.126;2023-11-21T05:32:17;6.97;;;3.10;;
63046;SDS011;62025;39.238;9.126;2023-11-21T05:34:43;3.97;;;2.80;;
63046;SDS011;62025;39.238;9.126;2023-11-21T05:37:09;4.47;;;2.92;;
63046;SDS011;62025;39.238;9.126;2023-11-21T05:39:35;6.80;;;2.47;;
63046;SDS011;62025;39.238;9.126;2023-11-21T05:42:01;5.15;;;2.30;;
63046;SDS011;62025;39.238;9.126;2023-11-21T05:44:27;3.70;;;2.72;;
63046;SDS011;62025;39.238;9.126;2023-11-21T05:46:52;6.63;;;3.10;;
63046;SDS011;62025;39.238;9.126;2023-11-21T05:49:18;4.45;;;2.40;;
63046;SDS011;62025;39.238;9.126;2023-11-21T05:51:47;4.72;;;2.40;;
63046;SDS011;62025;39.238;9.126;2023-11-21T05:54:13;4.82;;;2.45;;
63046;SDS011;62025;39.238;9.126;2023-11-21T05:56:39;5.25;;;2.40;;
63046;SDS011;62025;39.238;9.126;2023-11-21T05:59:05;2.83;;;2.20;;
63046;SDS011;62025;39.238;9.126;2023-11-21T06:01:31;7.00;;;2.38;;
63046;SDS011;62025;39.238;9.126;2023-11-21T06:03:57;5.15;;;2.58;;
63046;SDS011;62025;39.238;9.126;2023-11-21T06:06:24;4.57;;;2.67;;
63046;SDS011;62025;39.238;9.126;2023-11-21T06:08:50;4.25;;;2.40;;
63046;SDS011;62025;39.238;9.126;2023-11-21T06:11:17;4.32;;;2.60;;
63046;SDS011;62025;39.238;9.126;2023-11-21T06:13:43;5.10;;;2.55;;
63046;SDS011;62025;39.238;9.126;2023-11-21T06:16:09;5.65;;;2.60;;
63046;SDS011;62025;39.238;9.126;2023-11-21T06:18:35;4.25;;;2.60;;
63046;SDS011;62025;39.238;9.126;2023-11-21T06:21:01;4.95;;;2.60;;
63046;SDS011;62025;39.238;9.126;2023-11-21T06:23:27;5.72;;;2.92;;
63046;SDS011;62025;39.238;9.126;2023-11-21T06:25:52;5.40;;;3.20;;
63046;SDS011;62025;39.238;9.126;2023-11-21T06:28:18;7.32;;;3.85;;
63046;SDS011;62025;39.238;9.126;2023-11-21T06:30:44;6.95;;;3.28;;
63046;SDS011;62025;39.238;9.126;2023-11-21T06:33:10;4.93;;;3.28;;
63046;SDS011;62025;39.238;9.126;2023-11-21T06:35:36;7.70;;;3.38;;
63046;SDS011;62025;39.238;9.126;2023-11-21T06:38:02;9.05;;;3.40;;
63046;SDS011;62025;39.238;9.126;2023-11-21T06:40:28;4.07;;;2.90;;
63046;SDS011;62025;39.238;9.126;2023-11-21T06:42:53;5.25;;;3.00;;
63046;SDS011;62025;39.238;9.126;2023-11-21T06:45:19;4.85;;;3.00;;
63046;SDS011;62025;39.238;9.126;2023-11-21T06:47:46;4.43;;;3.40;;
63046;SDS011;62025;39.238;9.126;2023-11-21T06:50:12;7.05;;;4.03;;
63046;SDS011;62025;39.238;9.126;2023-11-21T06:52:38;4.97;;;3.67;;
63046;SDS011;62025;39.238;9.126;2023-11-21T06:55:04;4.68;;;3.75;;
63046;SDS011;62025;39.238;9.126;2023-11-21T06:57:33;9.63;;;4.18;;
63046;SDS011;62025;39.238;9.126;2023-11-21T06:59:59;4.82;;;3.47;;
63046;SDS011;62025;39.238;9.126;2023-11-21T07:02:25;5.85;;;3.47;;
63046;SDS011;62025;39.238;9.126;2023-11-21T07:04:51;5.38;;;3.80;;
63046;SDS011;62025;39.238;9.126;2023-11-21T07:07:17;5.40;;;3.53;;
63046;SDS011;62025;39.238;9.126;2023-11-21T07:09:44;7.70;;;3.70;;
63046;SDS011;62025;39.238;9.126;2023-11-21T07:12:10;10.63;;;4.25;;
63046;SDS011;62025;39.238;9.126;2023-11-21T07:14:36;8.13;;;4.57;;
63046;SDS011;62025;39.238;9.126;2023-11-21T07:17:04;6.07;;;3.77;;
63046;SDS011;62025;39.238;9.126;2023-11-21T07:19:30;9.32;;;4.68;;
63046;SDS011;62025;39.238;9.126;2023-11-21T07:21:56;9.15;;;3.90;;
63046;SDS011;62025;39.238;9.126;2023-11-21T07:24:21;9.85;;;3.65;;
63046;SDS011;62025;39.238;9.126;2023-11-21T07:26:50;5.20;;;3.28;;
63046;SDS011;62025;39.238;9.126;2023-11-21T07:29:16;10.07;;;4.78;;
63046;SDS011;62025;39.238;9.126;2023-11-21T07:31:42;5.63;;;3.97;;
63046;SDS011;62025;39.238;9.126;2023-11-21T07:34:07;8.55;;;3.80;;
63046;SDS011;62025;39.238;9.126;2023-11-21T07:36:33;7.22;;;3.13;;
63046;SDS011;62025;39.238;9.126;2023-11-21T07:38:59;7.05;;;3.15;;
63046;SDS011;62025;39.238;9.126;2023-11-21T07:41:27;6.93;;;2.28;;
63046;SDS011;62025;39.238;9.126;2023-11-21T07:43:54;4.43;;;2.70;;
63046;SDS011;62025;39.238;9.126;2023-11-21T07:46:21;5.68;;;2.50;;
63046;SDS011;62025;39.238;9.126;2023-11-21T07:48:47;3.83;;;2.60;;
63046;SDS011;62025;39.238;9.126;2023-11-21T07:51:13;9.07;;;2.53;;
63046;SDS011;62025;39.238;9.126;2023-11-21T07:53:39;6.03;;;2.38;;
63046;SDS011;62025;39.238;9.126;2023-11-21T07:56:05;5.38;;;2.40;;
63046;SDS011;62025;39.238;9.126;2023-11-21T07:58:35;5.18;;;2.40;;
63046;SDS011;62025;39.238;9.126;2023-11-21T08:01:02;3.28;;;2.40;;
63046;SDS011;62025;39.238;9.126;2023-11-21T08:03:28;8.65;;;2.97;;
63046;SDS011;62025;39.238;9.126;2023-11-21T08:05:58;6.43;;;2.58;;
63046;SDS011;62025;39.238;9.126;2023-11-21T08:08:24;6.13;;;2.97;;
63046;SDS011;62025;39.238;9.126;2023-11-21T08:10:51;5.78;;;2.90;;
63046;SDS011;62025;39.238;9.126;2023-11-21T08:13:24;4.70;;;2.65;;
63046;SDS011;62025;39.238;9.126;2023-11-21T08:15:53;9.70;;;2.85;;
63046;SDS011;62025;39.238;9.126;2023-11-21T08:18:20;3.88;;;1.83;;
63046;SDS011;62025;39.238;9.126;2023-11-21T08:20:45;4.65;;;1.70;;
63046;SDS011;62025;39.238;9.126;2023-11-21T08:23:14;5.00;;;1.85;;
63046;SDS011;62025;39.238;9.126;2023-11-21T08:25:44;3.22;;;1.73;;
63046;SDS011;62025;39.238;9.126;2023-11-21T08:28:10;4.68;;;2.15;;
63046;SDS011;62025;39.238;9.126;2023-11-21T08:30:37;4.22;;;1.50;;
63046;SDS011;62025;39.238;9.126;2023-11-21T08:33:03;6.78;;;1.75;;
63046;SDS011;62025;39.238;9.126;2023-11-21T08:35:29;2.30;;;1.52;;
63046;SDS011;62025;39.238;9.126;2023-11-21T08:37:56;4.03;;;1.60;;
63046;SDS011;62025;39.238;9.126;2023-11-21T08:40:22;6.15;;;1.80;;
63046;SDS011;62025;39.238;9.126;2023-11-21T08:42:48;6.65;;;1.48;;
63046;SDS011;62025;39.238;9.126;2023-11-21T08:45:17;4.57;;;1.50;;
63046;SDS011;62025;39.238;9.126;2023-11-21T08:47:43;4.32;;;1.50;;
63046;SDS011;62025;39.238;9.126;2023-11-21T08:50:09;3.72;;;1.45;;
63046;SDS011;62025;39.238;9.126;2023-11-21T08:52:39;7.20;;;1.80;;
63046;SDS011;62025;39.238;9.126;2023-11-21T08:57:36;7.40;;;2.42;;
63046;SDS011;62025;39.238;9.126;2023-11-21T09:00:03;5.28;;;2.28;;
63046;SDS011;62025;39.238;9.126;2023-11-21T09:02:35;5.95;;;3.00;;
63046;SDS011;62025;39.238;9.126;2023-11-21T09:05:02;11.98;;;3.55;;
63046;SDS011;62025;39.238;9.126;2023-11-21T09:07:29;8.93;;;4.43;;
63046;SDS011;62025;39.238;9.126;2023-11-21T09:09:55;12.50;;;4.20;;
63046;SDS011;62025;39.238;9.126;2023-11-21T09:12:21;10.50;;;3.78;;
63046;SDS011;62025;39.238;9.126;2023-11-21T09:14:47;10.60;;;4.60;;
63046;SDS011;62025;39.238;9.126;2023-11-21T09:17:15;6.55;;;3.38;;
63046;SDS011;62025;39.238;9.126;2023-11-21T09:19:41;15.80;;;5.18;;
63046;SDS011;62025;39.238;9.126;2023-11-21T09:22:07;7.10;;;3.78;;
63046;SDS011;62025;39.238;9.126;2023-11-21T09:24:33;11.05;;;5.30;;
63046;SDS011;62025;39.238;9.126;2023-11-21T09:26:59;8.70;;;4.00;;
63046;SDS011;62025;39.238;9.126;2023-11-21T09:29:28;12.30;;;3.67;;
63046;SDS011;62025;39.238;9.126;2023-11-21T09:31:54;8.60;;;3.58;;
63046;SDS011;62025;39.238;9.126;2023-11-21T09:34:22;10.10;;;3.20;;
63046;SDS011;62025;39.238;9.126;2023-11-21T09:36:48;8.32;;;3.03;;
63046;SDS011;62025;39.238;9.126;2023-11-21T09:39:14;10.65;;;3.05;;
63046;SDS011;62025;39.238;9.126;2023-11-21T09:41:49;11.07;;;4.40;;
63046;SDS011;62025;39.238;9.126;2023-11-21T09:44:19;10.52;;;2.92;;
63046;SDS011;62025;39.238;9.126;2023-11-21T09:47:02;10.57;;;2.97;;
63046;SDS011;62025;39.238;9.126;2023-11-21T09:49:28;13.55;;;2.95;;
63046;SDS011;62025;39.238;9.126;2023-11-21T09:52:00;10.95;;;2.90;;
63046;SDS011;62025;39.238;9.126;2023-11-21T09:54:30;9.93;;;3.33;;
63046;SDS011;62025;39.238;9.126;2023-11-21T09:57:00;12.15;;;3.25;;
63046;SDS011;62025;39.238;9.126;2023-11-21T09:59:29;12.50;;;2.40;;
63046;SDS011;62025;39.238;9.126;2023-11-21T10:01:57;10.48;;;2.17;;
63046;SDS011;62025;39.238;9.126;2023-11-21T10:04:23;17.83;;;3.67;;
63046;SDS011;62025;39.238;9.126;2023-11-21T10:06:52;8.65;;;2.92;;
63046;SDS011;62025;39.238;9.126;2023-11-21T10:09:19;14.23;;;3.50;;
63046;SDS011;62025;39.238;9.126;2023-11-21T10:11:46;12.68;;;3.13;;
63046;SDS011;62025;39.238;9.126;2023-11-21T10:14:14;11.05;;;2.85;;
63046;SDS011;62025;39.238;9.126;2023-11-21T10:16:44;10.50;;;2.70;;
63046;SDS011;62025;39.238;9.126;2023-11-21T10:21:38;13.07;;;3.28;;
63046;SDS011;62025;39.238;9.126;2023-11-21T10:24:05;13.10;;;3.70;;
63046;SDS011;62025;39.238;9.126;2023-11-21T10:26:31;17.90;;;4.05;;
63046;SDS011;62025;39.238;9.126;2023-11-21T10:28:59;13.52;;;3.25;;
63046;SDS011;62025;39.238;9.126;2023-11-21T10:31:31;17.58;;;3.30;;
63046;SDS011;62025;39.238;9.126;2023-11-21T10:34:15;17.45;;;4.00;;
63046;SDS011;62025;39.238;9.126;2023-11-21T10:36:43;12.75;;;3.55;;
63046;SDS011;62025;39.238;9.126;2023-11-21T10:39:19;13.25;;;3.67;;
63046;SDS011;62025;39.238;9.126;2023-11-21T10:41:49;10.55;;;3.38;;
63046;SDS011;62025;39.238;9.126;2023-11-21T10:44:16;7.00;;;3.45;;
63046;SDS011;62025;39.238;9.126;2023-11-21T10:46:47;8.90;;;2.95;;
63046;SDS011;62025;39.238;9.126;2023-11-21T10:49:18;11.85;;;3.22;;
63046;SDS011;62025;39.238;9.126;2023-11-21T10:51:45;13.40;;;2.80;;
63046;SDS011;62025;39.238;9.126;2023-11-21T10:54:17;9.68;;;2.75;;
63046;SDS011;62025;39.238;9.126;2023-11-21T10:56:46;15.07;;;3.00;;
63046;SDS011;62025;39.238;9.126;2023-11-21T10:59:16;12.02;;;2.90;;
63046;SDS011;62025;39.238;9.126;2023-11-21T11:01:42;14.45;;;3.10;;
63046;SDS011;62025;39.238;9.126;2023-11-21T11:04:13;12.07;;;3.85;;
63046;SDS011;62025;39.238;9.126;2023-11-21T11:06:52;9.43;;;2.80;;
63046;SDS011;62025;39.238;9.126;2023-11-21T11:09:21;14.35;;;2.65;;
63046;SDS011;62025;39.238;9.126;2023-11-21T11:11:47;9.90;;;2.38;;
63046;SDS011;62025;39.238;9.126;2023-11-21T11:14:14;10.02;;;2.90;;
63046;SDS011;62025;39.238;9.126;2023-11-21T11:16:40;11.27;;;3.03;;
63046;SDS011;62025;39.238;9.126;2023-11-21T11:19:08;8.40;;;2.83;;
63046;SDS011;62025;39.238;9.126;2023-11-21T11:27:52;9.60;;;2.42;;
63046;SDS011;62025;39.238;9.126;2023-11-21T11:30:36;12.45;;;2.17;;
63046;SDS011;62025;39.238;9.126;2023-11-21T11:38:50;8.25;;;2.28;;
63046;SDS011;62025;39.238;9.126;2023-11-21T11:41:24;7.18;;;1.90;;
63046;SDS011;62025;39.238;9.126;2023-11-21T11:43:55;9.35;;;2.28;;
63046;SDS011;62025;39.238;9.126;2023-11-21T11:46:39;11.57;;;2.13;;
63046;SDS011;62025;39.238;9.126;2023-11-21T11:49:11;10.95;;;2.58;;
63046;SDS011;62025;39.238;9.126;2023-11-21T11:55:05;8.52;;;1.92;;
63046;SDS011;62025;39.238;9.126;2023-11-21T11:57:35;9.27;;;1.98;;
63046;SDS011;62025;39.238;9.126;2023-11-21T12:00:14;6.03;;;1.80;;
63046;SDS011;62025;39.238;9.126;2023-11-21T12:05:20;22.10;;;2.85;;
63046;SDS011;62025;39.238;9.126;2023-11-21T12:07:54;15.20;;;2.05;;
63046;SDS011;62025;39.238;9.126;2023-11-21T12:17:48;10.95;;;2.70;;
63046;SDS011;62025;39.238;9.126;2023-11-21T12:20:15;11.95;;;1.70;;
63046;SDS011;62025;39.238;9.126;2023-11-21T12:22:44;11.68;;;2.00;;
63046;SDS011;62025;39.238;9.126;2023-11-21T12:25:24;15.63;;;2.58;;
63046;SDS011;62025;39.238;9.126;2023-11-21T12:27:57;10.43;;;1.92;;
63046;SDS011;62025;39.238;9.126;2023-11-21T12:30:26;9.95;;;2.00;;
63046;SDS011;62025;39.238;9.126;2023-11-21T12:32:57;17.50;;;2.17;;
63046;SDS011;62025;39.238;9.126;2023-11-21T12:35:25;10.68;;;1.70;;
63046;SDS011;62025;39.238;9.126;2023-11-21T12:37:52;18.37;;;3.13;;
63046;SDS011;62025;39.238;9.126;2023-11-21T12:40:20;9.38;;;1.90;;
63046;SDS011;62025;39.238;9.126;2023-11-21T12:42:48;16.38;;;2.30;;
63046;SDS011;62025;39.238;9.126;2023-11-21T12:45:19;12.85;;;1.70;;
63046;SDS011;62025;39.238;9.126;2023-11-21T12:47:46;13.30;;;1.70;;
63046;SDS011;62025;39.238;9.126;2023-11-21T12:50:19;11.45;;;1.63;;
63046;SDS011;62025;39.238;9.126;2023-11-21T12:52:49;12.75;;;1.38;;
63046;SDS011;62025;39.238;9.126;2023-11-21T12:55:22;9.88;;;1.90;;
63046;SDS011;62025;39.238;9.126;2023-11-21T12:57:51;18.50;;;1.95;;
63046;SDS011;62025;39.238;9.126;2023-11-21T13:00:20;6.82;;;1.35;;
63046;SDS011;62025;39.238;9.126;2023-11-21T13:02:54;10.23;;;1.40;;
63046;SDS011;62025;39.238;9.126;2023-11-21T13:05:29;16.38;;;1.73;;
63046;SDS011;62025;39.238;9.126;2023-11-21T13:07:58;10.65;;;1.60;;
63046;SDS011;62025;39.238;9.126;2023-11-21T13:10:28;13.02;;;2.28;;
63046;SDS011;62025;39.238;9.126;2023-11-21T13:12:58;13.38;;;1.48;;
63046;SDS011;62025;39.238;9.126;2023-11-21T13:15:30;8.52;;;1.67;;
63046;SDS011;62025;39.238;9.126;2023-11-21T13:17:58;11.00;;;1.63;;
63046;SDS011;62025;39.238;9.126;2023-11-21T13:20:24;16.58;;;2.03;;
63046;SDS011;62025;39.238;9.126;2023-11-21T13:22:52;13.30;;;2.08;;
63046;SDS011;62025;39.238;9.126;2023-11-21T13:25:23;16.27;;;2.47;;
63046;SDS011;62025;39.238;9.126;2023-11-21T13:27:49;6.10;;;1.42;;
63046;SDS011;62025;39.238;9.126;2023-11-21T13:30:16;12.25;;;2.47;;
63046;SDS011;62025;39.238;9.126;2023-11-21T13:32:48;7.13;;;1.80;;
63046;SDS011;62025;39.238;9.126;2023-11-21T13:35:17;16.30;;;1.67;;
63046;SDS011;62025;39.238;9.126;2023-11-21T13:37:50;10.48;;;1.55;;
63046;SDS011;62025;39.238;9.126;2023-11-21T13:40:21;16.60;;;1.92;;
63046;SDS011;62025;39.238;9.126;2023-11-21T13:42:54;12.98;;;1.60;;
63046;SDS011;62025;39.238;9.126;2023-11-21T13:45:25;9.15;;;1.63;;
63046;SDS011;62025;39.238;9.126;2023-11-21T13:47:53;17.33;;;1.85;;
63046;SDS011;62025;39.238;9.126;2023-11-21T13:50:23;15.27;;;2.60;;
63046;SDS011;62025;39.238;9.126;2023-11-21T13:52:55;9.35;;;1.80;;
63046;SDS011;62025;39.238;9.126;2023-11-21T13:55:21;14.70;;;2.05;;
63046;SDS011;62025;39.238;9.126;2023-11-21T14:00:17;13.75;;;2.00;;
63046;SDS011;62025;39.238;9.126;2023-11-21T14:03:02;11.00;;;1.80;;
63046;SDS011;62025;39.238;9.126;2023-11-21T14:05:33;7.80;;;1.45;;
63046;SDS011;62025;39.238;9.126;2023-11-21T14:08:00;9.90;;;1.63;;
63046;SDS011;62025;39.238;9.126;2023-11-21T14:10:30;10.23;;;1.58;;
63046;SDS011;62025;39.238;9.126;2023-11-21T14:13:08;11.15;;;1.52;;
63046;SDS011;62025;39.238;9.126;2023-11-21T14:15:41;8.85;;;1.58;;
63046;SDS011;62025;39.238;9.126;2023-11-21T14:18:11;13.43;;;1.88;;
63046;SDS011;62025;39.238;9.126;2023-11-21T14:23:06;11.25;;;1.80;;
63046;SDS011;62025;39.238;9.126;2023-11-21T14:25:33;14.93;;;2.15;;
63046;SDS011;62025;39.238;9.126;2023-11-21T14:28:00;16.23;;;2.00;;
63046;SDS011;62025;39.238;9.126;2023-11-21T14:30:26;12.05;;;1.58;;
63046;SDS011;62025;39.238;9.126;2023-11-21T14:32:54;10.80;;;1.90;;
63046;SDS011;62025;39.238;9.126;2023-11-21T14:35:20;10.50;;;1.60;;
63046;SDS011;62025;39.238;9.126;2023-11-21T14:37:45;10.77;;;1.92;;
63046;SDS011;62025;39.238;9.126;2023-11-21T14:40:12;8.30;;;2.00;;
63046;SDS011;62025;39.238;9.126;2023-11-21T14:42:41;5.25;;;1.40;;
63046;SDS011;62025;39.238;9.126;2023-11-21T14:45:09;8.05;;;1.77;;
63046;SDS011;62025;39.238;9.126;2023-11-21T14:47:37;6.13;;;1.20;;
63046;SDS011;62025;39.238;9.126;2023-11-21T14:50:09;9.50;;;1.88;;
63046;SDS011;62025;39.238;9.126;2023-11-21T14:52:53;7.43;;;1.50;;
63046;SDS011;62025;39.238;9.126;2023-11-21T14:55:24;7.03;;;1.33;;
63046;SDS011;62025;39.238;9.126;2023-11-21T14:58:10;8.65;;;1.77;;
63046;SDS011;62025;39.238;9.126;2023-11-21T15:00:40;6.05;;;1.25;;
63046;SDS011;62025;39.238;9.126;2023-11-21T15:03:09;4.25;;;1.40;;
63046;SDS011;62025;39.238;9.126;2023-11-21T15:05:46;9.40;;;2.45;;
63046;SDS011;62025;39.238;9.126;2023-11-21T15:08:14;9.52;;;1.70;;
63046;SDS011;62025;39.238;9.126;2023-11-21T15:10:52;6.60;;;1.52;;
63046;SDS011;62025;39.238;9.126;2023-11-21T15:15:51;5.70;;;1.10;;
63046;SDS011;62025;39.238;9.126;2023-11-21T15:18:19;7.40;;;1.70;;
63046;SDS011;62025;39.238;9.126;2023-11-21T15:20:46;5.05;;;1.30;;
63046;SDS011;62025;39.238;9.126;2023-11-21T15:23:12;5.18;;;1.52;;
63046;SDS011;62025;39.238;9.126;2023-11-21T15:25:38;7.15;;;1.30;;
63046;SDS011;62025;39.238;9.126;2023-11-21T15:28:04;7.57;;;1.52;;
63046;SDS011;62025;39.238;9.126;2023-11-21T15:30:31;6.30;;;1.83;;